sensor_id;sensor_type;location;lat;lon;timestamp;P1;durP1;ratioP1;P2;durP2;ratioP2
27921;SDS011;15261;50.356;10.340;2023-05-01T00:00:51;6.28;;;3.78;;
27921;SDS011;15261;50.356;10.340;2023-05-01T00:03:17;8.40;;;3.80;;
27921;SDS011;15261;50.356;10.340;2023-05-01T00:05:43;5.50;;;4.00;;
27921;SDS011;15261;50.356;10.340;2023-05-01T00:08:09;3.90;;;3.42;;
27921;SDS011;15261;50.356;10.340;2023-05-01T00:10:35;7.35;;;3.55;;
27921;SDS011;15261;50.356;10.340;2023-05-01T00:13:01;5.20;;;3.90;;
27921;SDS011;15261;50.356;10.340;2023-05-01T00:15:27;7.30;;;3.95;;
27921;SDS011;15261;50.356;10.340;2023-05-01T00:17:53;7.30;;;4.00;;
27921;SDS011;15261;50.356;10.340;2023-05-01T00:20:19;5.95;;;4.30;;
27921;SDS011;15261;50.356;10.340;2023-05-01T00:22:45;15.30;;;4.05;;
27921;SDS011;15261;50.356;10.340;2023-05-01T00:25:11;6.25;;;4.13;;
27921;SDS011;15261;50.356;10.340;2023-05-01T00:27:37;8.57;;;4.63;;
27921;SDS011;15261;50.356;10.340;2023-05-01T00:30:03;6.25;;;4.40;;
27921;SDS011;15261;50.356;10.340;2023-05-01T00:32:29;10.52;;;4.32;;
27921;SDS011;15261;50.356;10.340;2023-05-01T00:34:54;5.95;;;4.13;;
27921;SDS011;15261;50.356;10.340;2023-05-01T00:37:21;8.70;;;4.68;;
27921;SDS011;15261;50.356;10.340;2023-05-01T00:39:48;8.55;;;4.60;;
27921;SDS011;15261;50.356;10.340;2023-05-01T00:42:13;6.75;;;4.65;;
27921;SDS011;15261;50.356;10.340;2023-05-01T00:44:39;7.55;;;4.80;;
27921;SDS011;15261;50.356;10.340;2023-05-01T00:47:05;7.80;;;4.45;;
27921;SDS011;15261;50.356;10.340;2023-05-01T00:49:31;6.30;;;4.90;;
27921;SDS011;15261;50.356;10.340;2023-05-01T00:51:57;10.80;;;5.15;;
27921;SDS011;15261;50.356;10.340;2023-05-01T00:54:23;6.50;;;4.75;;
27921;SDS011;15261;50.356;10.340;2023-05-01T00:56:50;6.68;;;5.60;;
27921;SDS011;15261;50.356;10.340;2023-05-01T00:59:16;7.25;;;5.43;;
27921;SDS011;15261;50.356;10.340;2023-05-01T01:20:29;9.93;;;6.40;;
27921;SDS011;15261;50.356;10.340;2023-05-01T01:29:25;10.48;;;6.45;;
27921;SDS011;15261;50.356;10.340;2023-05-01T01:35:09;9.13;;;6.05;;
27921;SDS011;15261;50.356;10.340;2023-05-01T01:37:42;11.00;;;6.68;;
27921;SDS011;15261;50.356;10.340;2023-05-01T01:40:18;9.07;;;6.00;;
27921;SDS011;15261;50.356;10.340;2023-05-01T01:42:54;9.63;;;6.18;;
27921;SDS011;15261;50.356;10.340;2023-05-01T01:45:38;7.95;;;5.78;;
27921;SDS011;15261;50.356;10.340;2023-05-01T01:48:09;13.30;;;5.70;;
27921;SDS011;15261;50.356;10.340;2023-05-01T01:50:38;10.27;;;6.80;;
27921;SDS011;15261;50.356;10.340;2023-05-01T01:53:06;10.35;;;6.10;;
27921;SDS011;15261;50.356;10.340;2023-05-01T01:55:33;8.82;;;5.95;;
27921;SDS011;15261;50.356;10.340;2023-05-01T01:58:02;8.63;;;6.22;;
27921;SDS011;15261;50.356;10.340;2023-05-01T02:00:29;9.65;;;5.78;;
27921;SDS011;15261;50.356;10.340;2023-05-01T02:02:56;8.80;;;5.80;;
27921;SDS011;15261;50.356;10.340;2023-05-01T02:05:24;9.07;;;5.97;;
27921;SDS011;15261;50.356;10.340;2023-05-01T02:07:51;10.93;;;6.35;;
27921;SDS011;15261;50.356;10.340;2023-05-01T02:10:17;7.47;;;5.68;;
27921;SDS011;15261;50.356;10.340;2023-05-01T02:12:47;7.82;;;5.68;;
27921;SDS011;15261;50.356;10.340;2023-05-01T02:15:15;7.90;;;5.45;;
27921;SDS011;15261;50.356;10.340;2023-05-01T02:17:45;12.27;;;6.30;;
27921;SDS011;15261;50.356;10.340;2023-05-01T02:20:12;11.27;;;5.40;;
27921;SDS011;15261;50.356;10.340;2023-05-01T02:22:40;12.70;;;6.18;;
27921;SDS011;15261;50.356;10.340;2023-05-01T02:25:09;7.50;;;5.47;;
27921;SDS011;15261;50.356;10.340;2023-05-01T02:27:37;8.18;;;5.20;;
27921;SDS011;15261;50.356;10.340;2023-05-01T02:30:11;7.85;;;5.28;;
27921;SDS011;15261;50.356;10.340;2023-05-01T02:32:36;10.20;;;5.13;;
27921;SDS011;15261;50.356;10.340;2023-05-01T02:35:02;9.43;;;5.03;;
27921;SDS011;15261;50.356;10.340;2023-05-01T02:37:28;6.72;;;4.72;;
27921;SDS011;15261;50.356;10.340;2023-05-01T02:39:55;7.85;;;5.32;;
27921;SDS011;15261;50.356;10.340;2023-05-01T02:42:21;9.52;;;5.78;;
27921;SDS011;15261;50.356;10.340;2023-05-01T02:44:54;6.65;;;5.25;;
27921;SDS011;15261;50.356;10.340;2023-05-01T02:47:22;8.52;;;5.40;;
27921;SDS011;15261;50.356;10.340;2023-05-01T02:49:48;10.10;;;5.45;;
27921;SDS011;15261;50.356;10.340;2023-05-01T02:52:16;7.55;;;5.10;;
27921;SDS011;15261;50.356;10.340;2023-05-01T02:54:43;6.82;;;4.93;;
27921;SDS011;15261;50.356;10.340;2023-05-01T02:57:10;9.40;;;4.65;;
27921;SDS011;15261;50.356;10.340;2023-05-01T02:59:36;8.13;;;5.40;;
27921;SDS011;15261;50.356;10.340;2023-05-01T03:02:02;6.93;;;4.88;;
27921;SDS011;15261;50.356;10.340;2023-05-01T03:04:28;9.45;;;5.25;;
27921;SDS011;15261;50.356;10.340;2023-05-01T03:06:54;7.20;;;4.97;;
27921;SDS011;15261;50.356;10.340;2023-05-01T03:09:20;6.45;;;4.95;;
27921;SDS011;15261;50.356;10.340;2023-05-01T03:11:46;6.45;;;4.95;;
27921;SDS011;15261;50.356;10.340;2023-05-01T03:14:12;6.00;;;5.20;;
27921;SDS011;15261;50.356;10.340;2023-05-01T03:16:37;9.40;;;5.53;;
27921;SDS011;15261;50.356;10.340;2023-05-01T03:19:03;7.15;;;5.30;;
27921;SDS011;15261;50.356;10.340;2023-05-01T03:21:30;6.50;;;5.00;;
27921;SDS011;15261;50.356;10.340;2023-05-01T03:23:56;7.00;;;4.97;;
27921;SDS011;15261;50.356;10.340;2023-05-01T03:26:22;10.25;;;5.43;;
27921;SDS011;15261;50.356;10.340;2023-05-01T03:28:48;7.40;;;6.20;;
27921;SDS011;15261;50.356;10.340;2023-05-01T03:31:13;5.90;;;5.28;;
27921;SDS011;15261;50.356;10.340;2023-05-01T03:33:39;8.10;;;5.28;;
27921;SDS011;15261;50.356;10.340;2023-05-01T03:36:05;7.57;;;5.65;;
27921;SDS011;15261;50.356;10.340;2023-05-01T03:38:31;8.70;;;5.40;;
27921;SDS011;15261;50.356;10.340;2023-05-01T03:40:57;8.27;;;5.85;;
27921;SDS011;15261;50.356;10.340;2023-05-01T03:43:24;10.48;;;5.72;;
27921;SDS011;15261;50.356;10.340;2023-05-01T03:45:50;11.05;;;6.45;;
27921;SDS011;15261;50.356;10.340;2023-05-01T03:48:16;7.25;;;5.70;;
27921;SDS011;15261;50.356;10.340;2023-05-01T03:50:44;7.38;;;5.65;;
27921;SDS011;15261;50.356;10.340;2023-05-01T03:53:10;9.15;;;5.82;;
27921;SDS011;15261;50.356;10.340;2023-05-01T03:55:37;6.68;;;5.43;;
27921;SDS011;15261;50.356;10.340;2023-05-01T03:58:02;8.10;;;5.57;;
27921;SDS011;15261;50.356;10.340;2023-05-01T04:00:28;11.13;;;5.93;;
27921;SDS011;15261;50.356;10.340;2023-05-01T04:02:53;7.90;;;6.15;;
27921;SDS011;15261;50.356;10.340;2023-05-01T04:05:20;9.10;;;6.13;;
27921;SDS011;15261;50.356;10.340;2023-05-01T04:07:46;8.55;;;5.95;;
27921;SDS011;15261;50.356;10.340;2023-05-01T04:10:11;6.95;;;6.22;;
27921;SDS011;15261;50.356;10.340;2023-05-01T04:12:37;8.40;;;6.00;;
27921;SDS011;15261;50.356;10.340;2023-05-01T04:15:03;10.90;;;6.10;;
27921;SDS011;15261;50.356;10.340;2023-05-01T04:17:29;9.35;;;6.30;;
27921;SDS011;15261;50.356;10.340;2023-05-01T04:19:54;10.98;;;6.50;;
27921;SDS011;15261;50.356;10.340;2023-05-01T04:22:21;8.93;;;6.00;;
27921;SDS011;15261;50.356;10.340;2023-05-01T04:24:47;7.78;;;5.53;;
27921;SDS011;15261;50.356;10.340;2023-05-01T04:27:13;8.80;;;5.85;;
27921;SDS011;15261;50.356;10.340;2023-05-01T04:29:39;9.18;;;6.53;;
27921;SDS011;15261;50.356;10.340;2023-05-01T04:32:05;8.15;;;6.15;;
27921;SDS011;15261;50.356;10.340;2023-05-01T04:34:31;11.15;;;6.85;;
27921;SDS011;15261;50.356;10.340;2023-05-01T04:36:57;11.20;;;6.63;;
27921;SDS011;15261;50.356;10.340;2023-05-01T04:39:23;12.00;;;7.22;;
27921;SDS011;15261;50.356;10.340;2023-05-01T04:41:48;10.35;;;6.72;;
27921;SDS011;15261;50.356;10.340;2023-05-01T04:44:14;13.45;;;7.25;;
27921;SDS011;15261;50.356;10.340;2023-05-01T04:46:40;9.60;;;6.80;;
27921;SDS011;15261;50.356;10.340;2023-05-01T04:49:06;11.32;;;6.95;;
27921;SDS011;15261;50.356;10.340;2023-05-01T04:51:32;11.30;;;7.50;;
27921;SDS011;15261;50.356;10.340;2023-05-01T04:53:58;9.80;;;6.75;;
27921;SDS011;15261;50.356;10.340;2023-05-01T04:56:23;10.95;;;7.00;;
27921;SDS011;15261;50.356;10.340;2023-05-01T04:58:49;13.85;;;7.82;;
27921;SDS011;15261;50.356;10.340;2023-05-01T05:01:15;11.25;;;7.65;;
27921;SDS011;15261;50.356;10.340;2023-05-01T05:03:41;9.90;;;7.18;;
27921;SDS011;15261;50.356;10.340;2023-05-01T05:06:06;12.20;;;7.03;;
27921;SDS011;15261;50.356;10.340;2023-05-01T05:08:32;8.63;;;6.90;;
27921;SDS011;15261;50.356;10.340;2023-05-01T05:10:58;12.65;;;6.93;;
27921;SDS011;15261;50.356;10.340;2023-05-01T05:13:25;10.52;;;7.40;;
27921;SDS011;15261;50.356;10.340;2023-05-01T05:15:51;7.85;;;6.85;;
27921;SDS011;15261;50.356;10.340;2023-05-01T05:18:17;9.95;;;7.07;;
27921;SDS011;15261;50.356;10.340;2023-05-01T05:20:43;12.43;;;7.45;;
27921;SDS011;15261;50.356;10.340;2023-05-01T05:23:08;11.23;;;6.80;;
27921;SDS011;15261;50.356;10.340;2023-05-01T05:25:34;10.60;;;6.57;;
27921;SDS011;15261;50.356;10.340;2023-05-01T05:28:00;11.40;;;7.07;;
27921;SDS011;15261;50.356;10.340;2023-05-01T05:30:25;10.68;;;7.07;;
27921;SDS011;15261;50.356;10.340;2023-05-01T05:32:51;11.10;;;6.53;;
27921;SDS011;15261;50.356;10.340;2023-05-01T05:35:17;9.50;;;6.68;;
27921;SDS011;15261;50.356;10.340;2023-05-01T05:37:43;9.50;;;6.78;;
27921;SDS011;15261;50.356;10.340;2023-05-01T05:40:09;8.40;;;6.28;;
27921;SDS011;15261;50.356;10.340;2023-05-01T05:42:34;8.65;;;6.32;;
27921;SDS011;15261;50.356;10.340;2023-05-01T05:45:00;9.43;;;6.60;;
27921;SDS011;15261;50.356;10.340;2023-05-01T05:47:26;7.65;;;6.40;;
27921;SDS011;15261;50.356;10.340;2023-05-01T05:49:52;11.18;;;6.25;;
27921;SDS011;15261;50.356;10.340;2023-05-01T05:52:19;9.00;;;6.20;;
27921;SDS011;15261;50.356;10.340;2023-05-01T05:54:45;7.07;;;6.10;;
27921;SDS011;15261;50.356;10.340;2023-05-01T05:57:11;11.23;;;7.32;;
27921;SDS011;15261;50.356;10.340;2023-05-01T05:59:37;10.70;;;7.10;;
27921;SDS011;15261;50.356;10.340;2023-05-01T06:02:02;12.07;;;7.32;;
27921;SDS011;15261;50.356;10.340;2023-05-01T06:04:28;10.40;;;7.03;;
27921;SDS011;15261;50.356;10.340;2023-05-01T06:06:53;10.48;;;7.10;;
27921;SDS011;15261;50.356;10.340;2023-05-01T06:09:19;13.77;;;7.65;;
27921;SDS011;15261;50.356;10.340;2023-05-01T06:11:45;9.90;;;7.55;;
27921;SDS011;15261;50.356;10.340;2023-05-01T06:14:12;11.18;;;7.25;;
27921;SDS011;15261;50.356;10.340;2023-05-01T06:16:37;10.88;;;7.82;;
27921;SDS011;15261;50.356;10.340;2023-05-01T06:19:03;11.38;;;7.28;;
27921;SDS011;15261;50.356;10.340;2023-05-01T06:21:29;9.73;;;6.63;;
27921;SDS011;15261;50.356;10.340;2023-05-01T06:23:56;12.65;;;7.13;;
27921;SDS011;15261;50.356;10.340;2023-05-01T06:26:22;8.73;;;7.05;;
27921;SDS011;15261;50.356;10.340;2023-05-01T06:35:02;11.52;;;7.13;;
27921;SDS011;15261;50.356;10.340;2023-05-01T06:37:27;12.50;;;7.85;;
27921;SDS011;15261;50.356;10.340;2023-05-01T06:39:53;13.10;;;7.15;;
27921;SDS011;15261;50.356;10.340;2023-05-01T06:42:19;12.48;;;7.22;;
27921;SDS011;15261;50.356;10.340;2023-05-01T06:44:45;10.93;;;7.65;;
27921;SDS011;15261;50.356;10.340;2023-05-01T06:47:11;10.68;;;6.93;;
27921;SDS011;15261;50.356;10.340;2023-05-01T06:49:36;10.45;;;7.30;;
27921;SDS011;15261;50.356;10.340;2023-05-01T06:52:02;8.38;;;6.30;;
27921;SDS011;15261;50.356;10.340;2023-05-01T06:54:27;13.05;;;9.43;;
27921;SDS011;15261;50.356;10.340;2023-05-01T06:56:53;10.98;;;6.88;;
27921;SDS011;15261;50.356;10.340;2023-05-01T06:59:19;10.38;;;7.90;;
27921;SDS011;15261;50.356;10.340;2023-05-01T07:01:45;7.15;;;6.13;;
27921;SDS011;15261;50.356;10.340;2023-05-01T07:04:10;8.63;;;6.30;;
27921;SDS011;15261;50.356;10.340;2023-05-01T07:06:36;11.15;;;6.03;;
27921;SDS011;15261;50.356;10.340;2023-05-01T07:09:05;6.60;;;5.57;;
27921;SDS011;15261;50.356;10.340;2023-05-01T07:11:32;8.70;;;5.55;;
27921;SDS011;15261;50.356;10.340;2023-05-01T07:14:02;9.60;;;6.90;;
27921;SDS011;15261;50.356;10.340;2023-05-01T07:16:28;7.57;;;5.80;;
27921;SDS011;15261;50.356;10.340;2023-05-01T07:18:53;8.82;;;6.20;;
27921;SDS011;15261;50.356;10.340;2023-05-01T07:21:19;7.93;;;5.35;;
27921;SDS011;15261;50.356;10.340;2023-05-01T07:23:44;8.65;;;5.78;;
27921;SDS011;15261;50.356;10.340;2023-05-01T07:26:10;7.65;;;5.45;;
27921;SDS011;15261;50.356;10.340;2023-05-01T07:28:36;9.10;;;5.40;;
27921;SDS011;15261;50.356;10.340;2023-05-01T07:31:01;7.85;;;5.60;;
27921;SDS011;15261;50.356;10.340;2023-05-01T07:33:27;11.40;;;6.32;;
27921;SDS011;15261;50.356;10.340;2023-05-01T07:35:53;10.80;;;6.35;;
27921;SDS011;15261;50.356;10.340;2023-05-01T07:38:19;9.57;;;6.65;;
27921;SDS011;15261;50.356;10.340;2023-05-01T07:40:44;7.50;;;5.63;;
27921;SDS011;15261;50.356;10.340;2023-05-01T07:43:10;9.23;;;6.15;;
27921;SDS011;15261;50.356;10.340;2023-05-01T07:45:36;10.43;;;6.13;;
27921;SDS011;15261;50.356;10.340;2023-05-01T07:48:03;7.90;;;5.70;;
27921;SDS011;15261;50.356;10.340;2023-05-01T07:50:29;8.88;;;5.88;;
27921;SDS011;15261;50.356;10.340;2023-05-01T07:52:55;8.77;;;5.72;;
27921;SDS011;15261;50.356;10.340;2023-05-01T07:55:21;8.70;;;6.55;;
27921;SDS011;15261;50.356;10.340;2023-05-01T07:57:50;7.32;;;5.38;;
27921;SDS011;15261;50.356;10.340;2023-05-01T08:00:16;5.60;;;4.97;;
27921;SDS011;15261;50.356;10.340;2023-05-01T08:02:42;10.13;;;5.80;;
27921;SDS011;15261;50.356;10.340;2023-05-01T08:05:08;8.18;;;5.45;;
27921;SDS011;15261;50.356;10.340;2023-05-01T08:07:34;9.50;;;6.15;;
27921;SDS011;15261;50.356;10.340;2023-05-01T08:10:00;6.25;;;5.63;;
27921;SDS011;15261;50.356;10.340;2023-05-01T08:12:27;9.25;;;5.88;;
27921;SDS011;15261;50.356;10.340;2023-05-01T08:14:53;8.70;;;5.72;;
27921;SDS011;15261;50.356;10.340;2023-05-01T08:17:19;7.88;;;5.65;;
27921;SDS011;15261;50.356;10.340;2023-05-01T08:19:45;10.68;;;5.88;;
27921;SDS011;15261;50.356;10.340;2023-05-01T08:22:11;8.85;;;5.50;;
27921;SDS011;15261;50.356;10.340;2023-05-01T08:24:39;8.00;;;5.28;;
27921;SDS011;15261;50.356;10.340;2023-05-01T08:27:06;9.15;;;5.45;;
27921;SDS011;15261;50.356;10.340;2023-05-01T08:29:33;8.25;;;5.32;;
27921;SDS011;15261;50.356;10.340;2023-05-01T08:31:59;6.63;;;5.40;;
27921;SDS011;15261;50.356;10.340;2023-05-01T08:34:24;11.93;;;5.63;;
27921;SDS011;15261;50.356;10.340;2023-05-01T08:36:50;9.88;;;5.85;;
27921;SDS011;15261;50.356;10.340;2023-05-01T08:39:16;10.25;;;5.68;;
27921;SDS011;15261;50.356;10.340;2023-05-01T08:41:45;8.80;;;6.45;;
27921;SDS011;15261;50.356;10.340;2023-05-01T08:44:12;8.02;;;5.90;;
27921;SDS011;15261;50.356;10.340;2023-05-01T08:46:43;8.90;;;5.95;;
27921;SDS011;15261;50.356;10.340;2023-05-01T08:49:30;6.85;;;5.65;;
27921;SDS011;15261;50.356;10.340;2023-05-01T08:51:57;7.47;;;5.68;;
27921;SDS011;15261;50.356;10.340;2023-05-01T08:54:30;10.73;;;5.80;;
27921;SDS011;15261;50.356;10.340;2023-05-01T08:57:09;7.00;;;5.28;;
27921;SDS011;15261;50.356;10.340;2023-05-01T08:59:36;8.38;;;5.70;;
27921;SDS011;15261;50.356;10.340;2023-05-01T09:02:04;9.65;;;5.88;;
27921;SDS011;15261;50.356;10.340;2023-05-01T09:04:33;7.07;;;5.60;;
27921;SDS011;15261;50.356;10.340;2023-05-01T09:07:00;7.38;;;5.15;;
27921;SDS011;15261;50.356;10.340;2023-05-01T09:09:27;7.07;;;5.18;;
27921;SDS011;15261;50.356;10.340;2023-05-01T09:12:17;6.63;;;5.20;;
27921;SDS011;15261;50.356;10.340;2023-05-01T09:14:45;6.78;;;5.72;;
27921;SDS011;15261;50.356;10.340;2023-05-01T09:17:11;9.43;;;5.30;;
27921;SDS011;15261;50.356;10.340;2023-05-01T09:19:38;7.10;;;5.50;;
27921;SDS011;15261;50.356;10.340;2023-05-01T09:22:05;7.28;;;5.63;;
27921;SDS011;15261;50.356;10.340;2023-05-01T09:24:31;9.05;;;5.60;;
27921;SDS011;15261;50.356;10.340;2023-05-01T09:26:57;5.75;;;5.10;;
27921;SDS011;15261;50.356;10.340;2023-05-01T09:29:39;6.30;;;5.30;;
27921;SDS011;15261;50.356;10.340;2023-05-01T09:32:16;7.53;;;5.15;;
27921;SDS011;15261;50.356;10.340;2023-05-01T09:34:44;9.48;;;5.30;;
27921;SDS011;15261;50.356;10.340;2023-05-01T09:37:24;6.90;;;5.57;;
27921;SDS011;15261;50.356;10.340;2023-05-01T09:40:03;9.65;;;5.88;;
27921;SDS011;15261;50.356;10.340;2023-05-01T09:42:33;7.45;;;5.03;;
27921;SDS011;15261;50.356;10.340;2023-05-01T09:45:22;5.95;;;5.35;;
27921;SDS011;15261;50.356;10.340;2023-05-01T09:47:48;9.30;;;5.88;;
27921;SDS011;15261;50.356;10.340;2023-05-01T09:52:55;8.55;;;5.45;;
27921;SDS011;15261;50.356;10.340;2023-05-01T09:55:21;6.03;;;5.32;;
27921;SDS011;15261;50.356;10.340;2023-05-01T09:57:50;11.13;;;5.93;;
27921;SDS011;15261;50.356;10.340;2023-05-01T10:00:16;11.25;;;6.40;;
27921;SDS011;15261;50.356;10.340;2023-05-01T10:02:45;8.52;;;5.65;;
27921;SDS011;15261;50.356;10.340;2023-05-01T10:05:12;7.75;;;5.78;;
27921;SDS011;15261;50.356;10.340;2023-05-01T10:07:38;7.88;;;5.70;;
27921;SDS011;15261;50.356;10.340;2023-05-01T10:10:17;7.63;;;5.50;;
27921;SDS011;15261;50.356;10.340;2023-05-01T10:12:44;9.25;;;5.55;;
27921;SDS011;15261;50.356;10.340;2023-05-01T10:15:10;10.10;;;5.80;;
27921;SDS011;15261;50.356;10.340;2023-05-01T10:17:36;7.30;;;5.97;;
27921;SDS011;15261;50.356;10.340;2023-05-01T10:20:03;8.65;;;5.60;;
27921;SDS011;15261;50.356;10.340;2023-05-01T10:22:30;10.23;;;5.22;;
27921;SDS011;15261;50.356;10.340;2023-05-01T10:24:56;9.02;;;6.28;;
27921;SDS011;15261;50.356;10.340;2023-05-01T10:27:23;8.60;;;5.63;;
27921;SDS011;15261;50.356;10.340;2023-05-01T10:29:51;6.95;;;5.30;;
27921;SDS011;15261;50.356;10.340;2023-05-01T10:32:17;7.22;;;5.47;;
27921;SDS011;15261;50.356;10.340;2023-05-01T10:34:46;8.00;;;5.20;;
27921;SDS011;15261;50.356;10.340;2023-05-01T10:37:38;8.43;;;5.80;;
27921;SDS011;15261;50.356;10.340;2023-05-01T10:43:16;6.53;;;5.30;;
27921;SDS011;15261;50.356;10.340;2023-05-01T10:51:17;7.60;;;5.50;;
27921;SDS011;15261;50.356;10.340;2023-05-01T10:53:45;8.40;;;5.88;;
27921;SDS011;15261;50.356;10.340;2023-05-01T10:58:57;6.75;;;5.40;;
27921;SDS011;15261;50.356;10.340;2023-05-01T11:01:36;6.72;;;5.10;;
27921;SDS011;15261;50.356;10.340;2023-05-01T11:04:51;7.25;;;5.50;;
27921;SDS011;15261;50.356;10.340;2023-05-01T11:12:05;5.95;;;4.97;;
27921;SDS011;15261;50.356;10.340;2023-05-01T11:20:05;6.43;;;4.63;;
27921;SDS011;15261;50.356;10.340;2023-05-01T11:22:35;5.25;;;4.63;;
27921;SDS011;15261;50.356;10.340;2023-05-01T11:25:03;6.63;;;4.25;;
27921;SDS011;15261;50.356;10.340;2023-05-01T11:27:45;7.43;;;4.50;;
27921;SDS011;15261;50.356;10.340;2023-05-01T11:30:17;6.93;;;4.50;;
27921;SDS011;15261;50.356;10.340;2023-05-01T11:32:44;5.43;;;4.60;;
27921;SDS011;15261;50.356;10.340;2023-05-01T11:35:15;4.93;;;4.43;;
27921;SDS011;15261;50.356;10.340;2023-05-01T11:37:50;4.88;;;4.22;;
27921;SDS011;15261;50.356;10.340;2023-05-01T11:40:20;8.35;;;4.72;;
27921;SDS011;15261;50.356;10.340;2023-05-01T11:43:02;4.93;;;4.43;;
27921;SDS011;15261;50.356;10.340;2023-05-01T11:45:32;7.65;;;5.25;;
27921;SDS011;15261;50.356;10.340;2023-05-01T11:47:59;5.40;;;4.60;;
27921;SDS011;15261;50.356;10.340;2023-05-01T11:50:36;5.38;;;4.40;;
27921;SDS011;15261;50.356;10.340;2023-05-01T11:53:02;7.47;;;5.00;;
27921;SDS011;15261;50.356;10.340;2023-05-01T11:55:35;5.60;;;4.72;;
27921;SDS011;15261;50.356;10.340;2023-05-01T11:58:03;7.28;;;4.75;;
27921;SDS011;15261;50.356;10.340;2023-05-01T12:00:29;6.22;;;4.20;;
27921;SDS011;15261;50.356;10.340;2023-05-01T12:03:02;7.78;;;4.32;;
27921;SDS011;15261;50.356;10.340;2023-05-01T12:05:32;6.32;;;4.45;;
27921;SDS011;15261;50.356;10.340;2023-05-01T12:10:43;6.47;;;4.60;;
27921;SDS011;15261;50.356;10.340;2023-05-01T12:13:11;4.55;;;4.15;;
27921;SDS011;15261;50.356;10.340;2023-05-01T12:15:41;5.38;;;4.45;;
27921;SDS011;15261;50.356;10.340;2023-05-01T12:18:09;4.80;;;4.25;;
27921;SDS011;15261;50.356;10.340;2023-05-01T12:20:37;4.50;;;4.00;;
27921;SDS011;15261;50.356;10.340;2023-05-01T12:23:05;4.97;;;4.47;;
27921;SDS011;15261;50.356;10.340;2023-05-01T12:25:32;4.70;;;4.13;;
27921;SDS011;15261;50.356;10.340;2023-05-01T12:28:02;4.47;;;3.88;;
27921;SDS011;15261;50.356;10.340;2023-05-01T12:30:33;4.60;;;4.05;;
27921;SDS011;15261;50.356;10.340;2023-05-01T12:33:04;4.43;;;3.80;;
27921;SDS011;15261;50.356;10.340;2023-05-01T12:35:36;4.30;;;3.70;;
27921;SDS011;15261;50.356;10.340;2023-05-01T12:38:12;7.10;;;4.55;;
27921;SDS011;15261;50.356;10.340;2023-05-01T12:40:49;4.82;;;4.20;;
27921;SDS011;15261;50.356;10.340;2023-05-01T12:43:17;6.88;;;4.05;;
27921;SDS011;15261;50.356;10.340;2023-05-01T12:46:02;6.15;;;3.78;;
27921;SDS011;15261;50.356;10.340;2023-05-01T12:48:29;4.90;;;4.47;;
27921;SDS011;15261;50.356;10.340;2023-05-01T12:50:55;4.85;;;4.00;;
27921;SDS011;15261;50.356;10.340;2023-05-01T12:53:22;4.35;;;3.92;;
27921;SDS011;15261;50.356;10.340;2023-05-01T12:55:50;4.50;;;3.97;;
27921;SDS011;15261;50.356;10.340;2023-05-01T12:58:20;4.05;;;3.75;;
27921;SDS011;15261;50.356;10.340;2023-05-01T13:00:50;3.90;;;3.60;;
27921;SDS011;15261;50.356;10.340;2023-05-01T13:03:22;4.05;;;3.65;;
27921;SDS011;15261;50.356;10.340;2023-05-01T13:05:53;6.88;;;3.88;;
27921;SDS011;15261;50.356;10.340;2023-05-01T13:08:26;4.95;;;3.50;;
27921;SDS011;15261;50.356;10.340;2023-05-01T13:10:55;3.72;;;3.42;;
27921;SDS011;15261;50.356;10.340;2023-05-01T13:13:22;4.53;;;4.10;;
27921;SDS011;15261;50.356;10.340;2023-05-01T13:15:49;4.15;;;3.75;;
27921;SDS011;15261;50.356;10.340;2023-05-01T13:18:16;4.55;;;3.75;;
27921;SDS011;15261;50.356;10.340;2023-05-01T13:20:41;3.90;;;3.50;;
27921;SDS011;15261;50.356;10.340;2023-05-01T13:23:10;4.28;;;3.22;;
27921;SDS011;15261;50.356;10.340;2023-05-01T13:25:39;4.05;;;2.90;;
27921;SDS011;15261;50.356;10.340;2023-05-01T13:28:05;4.30;;;3.15;;
27921;SDS011;15261;50.356;10.340;2023-05-01T13:30:32;2.50;;;2.30;;
27921;SDS011;15261;50.356;10.340;2023-05-01T13:32:59;3.30;;;2.50;;
27921;SDS011;15261;50.356;10.340;2023-05-01T13:35:25;3.67;;;2.50;;
27921;SDS011;15261;50.356;10.340;2023-05-01T13:37:51;2.97;;;2.40;;
27921;SDS011;15261;50.356;10.340;2023-05-01T13:40:18;2.72;;;2.50;;
27921;SDS011;15261;50.356;10.340;2023-05-01T13:42:44;2.92;;;2.60;;
27921;SDS011;15261;50.356;10.340;2023-05-01T13:45:10;3.45;;;2.22;;
27921;SDS011;15261;50.356;10.340;2023-05-01T13:47:38;7.32;;;2.80;;
27921;SDS011;15261;50.356;10.340;2023-05-01T13:50:09;3.60;;;2.50;;
27921;SDS011;15261;50.356;10.340;2023-05-01T13:52:41;2.63;;;2.33;;
27921;SDS011;15261;50.356;10.340;2023-05-01T13:55:08;2.75;;;2.38;;
27921;SDS011;15261;50.356;10.340;2023-05-01T13:57:37;4.45;;;2.88;;
27921;SDS011;15261;50.356;10.340;2023-05-01T14:00:13;10.27;;;7.45;;
27921;SDS011;15261;50.356;10.340;2023-05-01T14:02:44;8.75;;;7.03;;
27921;SDS011;15261;50.356;10.340;2023-05-01T14:05:14;3.03;;;2.55;;
27921;SDS011;15261;50.356;10.340;2023-05-01T14:07:44;3.30;;;2.60;;
27921;SDS011;15261;50.356;10.340;2023-05-01T14:10:17;2.67;;;2.47;;
27921;SDS011;15261;50.356;10.340;2023-05-01T14:12:43;5.03;;;2.85;;
27921;SDS011;15261;50.356;10.340;2023-05-01T14:15:09;4.82;;;3.10;;
27921;SDS011;15261;50.356;10.340;2023-05-01T14:17:37;3.55;;;3.08;;
27921;SDS011;15261;50.356;10.340;2023-05-01T14:20:03;4.35;;;3.45;;
27921;SDS011;15261;50.356;10.340;2023-05-01T14:25:20;4.82;;;3.50;;
27921;SDS011;15261;50.356;10.340;2023-05-01T14:27:48;3.40;;;3.10;;
27921;SDS011;15261;50.356;10.340;2023-05-01T14:30:24;5.10;;;3.42;;
27921;SDS011;15261;50.356;10.340;2023-05-01T14:32:59;3.75;;;3.45;;
27921;SDS011;15261;50.356;10.340;2023-05-01T14:35:26;4.00;;;3.58;;
27921;SDS011;15261;50.356;10.340;2023-05-01T14:37:52;4.13;;;3.50;;
27921;SDS011;15261;50.356;10.340;2023-05-01T14:40:21;4.25;;;3.60;;
27921;SDS011;15261;50.356;10.340;2023-05-01T14:42:51;5.45;;;3.75;;
27921;SDS011;15261;50.356;10.340;2023-05-01T14:45:18;5.22;;;4.72;;
27921;SDS011;15261;50.356;10.340;2023-05-01T14:47:44;4.20;;;3.42;;
27921;SDS011;15261;50.356;10.340;2023-05-01T14:50:11;13.95;;;5.60;;
27921;SDS011;15261;50.356;10.340;2023-05-01T14:52:42;8.10;;;7.28;;
27921;SDS011;15261;50.356;10.340;2023-05-01T14:55:09;3.92;;;3.47;;
27921;SDS011;15261;50.356;10.340;2023-05-01T14:57:35;3.95;;;3.53;;
27921;SDS011;15261;50.356;10.340;2023-05-01T15:00:01;4.53;;;3.50;;
27921;SDS011;15261;50.356;10.340;2023-05-01T15:02:29;5.45;;;3.03;;
27921;SDS011;15261;50.356;10.340;2023-05-01T15:04:54;5.18;;;3.67;;
27921;SDS011;15261;50.356;10.340;2023-05-01T15:07:20;4.70;;;3.90;;
27921;SDS011;15261;50.356;10.340;2023-05-01T15:09:46;4.45;;;4.05;;
27921;SDS011;15261;50.356;10.340;2023-05-01T15:12:12;5.93;;;4.28;;
27921;SDS011;15261;50.356;10.340;2023-05-01T15:14:37;6.22;;;4.53;;
27921;SDS011;15261;50.356;10.340;2023-05-01T15:17:03;4.70;;;4.13;;
27921;SDS011;15261;50.356;10.340;2023-05-01T15:19:28;4.55;;;4.10;;
27921;SDS011;15261;50.356;10.340;2023-05-01T15:21:54;7.15;;;4.35;;
27921;SDS011;15261;50.356;10.340;2023-05-01T15:24:19;4.55;;;3.80;;
27921;SDS011;15261;50.356;10.340;2023-05-01T15:26:47;4.47;;;4.07;;
27921;SDS011;15261;50.356;10.340;2023-05-01T15:29:12;6.93;;;3.92;;
27921;SDS011;15261;50.356;10.340;2023-05-01T15:31:38;4.88;;;4.32;;
27921;SDS011;15261;50.356;10.340;2023-05-01T15:34:04;5.10;;;4.25;;
27921;SDS011;15261;50.356;10.340;2023-05-01T15:36:29;5.15;;;4.38;;
27921;SDS011;15261;50.356;10.340;2023-05-01T15:38:56;7.60;;;5.10;;